sensor_id;sensor_type;location;lat;lon;timestamp;pressure;altitude;pressure_sealevel;temperature;humidity
28344;BME280;15597;50.914;6.638;2023-06-10T00:00:35;100591.25;;;28.14;34.27
28344;BME280;15597;50.914;6.638;2023-06-10T00:03:01;100594.03;;;28.12;34.26
28344;BME280;15597;50.914;6.638;2023-06-10T00:05:27;100592.34;;;28.11;34.14
28344;BME280;15597;50.914;6.638;2023-06-10T00:07:55;100590.53;;;28.12;34.14
28344;BME280;15597;50.914;6.638;2023-06-10T00:10:22;100584.41;;;28.10;34.17
28344;BME280;15597;50.914;6.638;2023-06-10T00:12:47;100592.66;;;28.08;34.03
28344;BME280;15597;50.914;6.638;2023-06-10T00:15:13;100588.25;;;28.07;34.28
28344;BME280;15597;50.914;6.638;2023-06-10T00:17:39;100588.41;;;28.06;34.22
28344;BME280;15597;50.914;6.638;2023-06-10T00:20:08;100589.84;;;28.00;34.40
28344;BME280;15597;50.914;6.638;2023-06-10T00:22:36;100587.16;;;28.00;34.47
28344;BME280;15597;50.914;6.638;2023-06-10T00:25:04;100591.69;;;27.99;34.25
28344;BME280;15597;50.914;6.638;2023-06-10T00:27:30;100592.84;;;27.97;34.29
28344;BME280;15597;50.914;6.638;2023-06-10T00:30:04;100597.50;;;27.95;34.41
28344;BME280;15597;50.914;6.638;2023-06-10T00:32:36;100595.81;;;27.94;34.38
28344;BME280;15597;50.914;6.638;2023-06-10T00:35:02;100597.81;;;27.92;34.36
28344;BME280;15597;50.914;6.638;2023-06-10T00:37:30;100598.09;;;27.89;34.24
28344;BME280;15597;50.914;6.638;2023-06-10T00:39:57;100598.41;;;27.85;34.58
28344;BME280;15597;50.914;6.638;2023-06-10T00:42:23;100595.84;;;27.84;34.57
28344;BME280;15597;50.914;6.638;2023-06-10T00:44:50;100593.31;;;27.82;34.55
28344;BME280;15597;50.914;6.638;2023-06-10T00:47:16;100600.69;;;27.80;34.57
28344;BME280;15597;50.914;6.638;2023-06-10T00:49:42;100602.66;;;27.78;34.64
28344;BME280;15597;50.914;6.638;2023-06-10T00:52:09;100611.00;;;27.75;34.77
28344;BME280;15597;50.914;6.638;2023-06-10T00:54:37;100599.69;;;27.72;34.89
28344;BME280;15597;50.914;6.638;2023-06-10T00:57:03;100602.53;;;27.70;34.80
28344;BME280;15597;50.914;6.638;2023-06-10T00:59:29;100601.84;;;27.68;34.91
28344;BME280;15597;50.914;6.638;2023-06-10T01:01:56;100600.44;;;27.64;34.83
28344;BME280;15597;50.914;6.638;2023-06-10T01:04:22;100600.72;;;27.61;35.04
28344;BME280;15597;50.914;6.638;2023-06-10T01:07:07;100605.66;;;27.55;35.11
28344;BME280;15597;50.914;6.638;2023-06-10T01:09:43;100600.84;;;27.49;34.99
28344;BME280;15597;50.914;6.638;2023-06-10T01:12:31;100598.41;;;27.46;35.08
28344;BME280;15597;50.914;6.638;2023-06-10T01:14:59;100595.59;;;27.48;35.15
28344;BME280;15597;50.914;6.638;2023-06-10T01:17:25;100594.91;;;27.46;35.10
28344;BME280;15597;50.914;6.638;2023-06-10T01:19:56;100603.38;;;27.41;35.28
28344;BME280;15597;50.914;6.638;2023-06-10T01:22:25;100602.69;;;27.39;35.30
28344;BME280;15597;50.914;6.638;2023-06-10T01:24:55;100598.28;;;27.38;35.23
28344;BME280;15597;50.914;6.638;2023-06-10T01:27:26;100594.19;;;27.34;35.42
28344;BME280;15597;50.914;6.638;2023-06-10T01:29:59;100592.78;;;27.30;35.36
28344;BME280;15597;50.914;6.638;2023-06-10T01:32:34;100602.13;;;27.25;35.45
28344;BME280;15597;50.914;6.638;2023-06-10T01:35:02;100593.06;;;27.26;35.37
28344;BME280;15597;50.914;6.638;2023-06-10T01:37:29;100595.91;;;27.25;35.45
28344;BME280;15597;50.914;6.638;2023-06-10T01:39:58;100599.88;;;27.21;35.47
28344;BME280;15597;50.914;6.638;2023-06-10T01:42:24;100595.63;;;27.18;35.38
28344;BME280;15597;50.914;6.638;2023-06-10T01:44:51;100596.78;;;27.16;35.66
28344;BME280;15597;50.914;6.638;2023-06-10T01:47:17;100597.88;;;27.13;35.59
28344;BME280;15597;50.914;6.638;2023-06-10T01:49:43;100604.25;;;27.12;35.70
28344;BME280;15597;50.914;6.638;2023-06-10T01:52:08;100603.53;;;27.10;35.69
28344;BME280;15597;50.914;6.638;2023-06-10T01:54:34;100600.16;;;27.08;35.81
28344;BME280;15597;50.914;6.638;2023-06-10T01:57:01;100608.34;;;27.06;35.57
28344;BME280;15597;50.914;6.638;2023-06-10T01:59:27;100611.16;;;27.05;35.72
28344;BME280;15597;50.914;6.638;2023-06-10T02:01:52;100607.78;;;27.03;35.76
28344;BME280;15597;50.914;6.638;2023-06-10T02:04:18;100607.91;;;27.01;35.51
28344;BME280;15597;50.914;6.638;2023-06-10T02:06:44;100603.81;;;26.97;35.75
28344;BME280;15597;50.914;6.638;2023-06-10T02:09:10;100604.94;;;26.94;35.92
28344;BME280;15597;50.914;6.638;2023-06-10T02:11:35;100609.88;;;26.89;35.98
28344;BME280;15597;50.914;6.638;2023-06-10T02:14:01;100619.03;;;26.87;35.71
28344;BME280;15597;50.914;6.638;2023-06-10T02:16:26;100606.84;;;26.82;35.74
28344;BME280;15597;50.914;6.638;2023-06-10T02:18:52;100611.66;;;26.79;35.83
28344;BME280;15597;50.914;6.638;2023-06-10T02:21:18;100610.09;;;26.76;36.27
28344;BME280;15597;50.914;6.638;2023-06-10T02:23:43;100613.06;;;26.73;36.08
28344;BME280;15597;50.914;6.638;2023-06-10T02:26:09;100617.59;;;26.73;35.86
28344;BME280;15597;50.914;6.638;2023-06-10T02:28:34;100625.94;;;26.69;36.17
28344;BME280;15597;50.914;6.638;2023-06-10T02:31:00;100618.16;;;26.66;36.12
28344;BME280;15597;50.914;6.638;2023-06-10T02:33:27;100619.13;;;26.65;36.45
28344;BME280;15597;50.914;6.638;2023-06-10T02:35:52;100620.13;;;26.64;36.44
28344;BME280;15597;50.914;6.638;2023-06-10T02:38:19;100613.06;;;26.63;36.02
28344;BME280;15597;50.914;6.638;2023-06-10T02:40:44;100619.53;;;26.61;36.43
28344;BME280;15597;50.914;6.638;2023-06-10T02:43:11;100625.06;;;26.59;36.56
28344;BME280;15597;50.914;6.638;2023-06-10T02:45:37;100615.56;;;26.55;36.29
28344;BME280;15597;50.914;6.638;2023-06-10T02:48:03;100622.19;;;26.51;36.51
28344;BME280;15597;50.914;6.638;2023-06-10T02:50:31;100623.16;;;26.50;36.50
28344;BME280;15597;50.914;6.638;2023-06-10T02:53:16;100625.41;;;26.45;36.37
28344;BME280;15597;50.914;6.638;2023-06-10T02:55:47;100624.69;;;26.43;36.59
28344;BME280;15597;50.914;6.638;2023-06-10T02:58:15;100623.97;;;26.40;36.37
28344;BME280;15597;50.914;6.638;2023-06-10T03:00:41;100620.59;;;26.38;36.35
28344;BME280;15597;50.914;6.638;2023-06-10T03:03:10;100620.84;;;26.35;36.64
28344;BME280;15597;50.914;6.638;2023-06-10T03:05:43;100621.13;;;26.32;36.47
28344;BME280;15597;50.914;6.638;2023-06-10T03:08:09;100621.41;;;26.29;36.63
28344;BME280;15597;50.914;6.638;2023-06-10T03:10:37;100627.91;;;26.27;36.51
28344;BME280;15597;50.914;6.638;2023-06-10T03:13:03;100627.03;;;26.26;36.54
28344;BME280;15597;50.914;6.638;2023-06-10T03:15:29;100628.28;;;26.22;36.86
28344;BME280;15597;50.914;6.638;2023-06-10T03:17:59;100631.94;;;26.21;36.81
28344;BME280;15597;50.914;6.638;2023-06-10T03:20:26;100634.91;;;26.18;37.00
28344;BME280;15597;50.914;6.638;2023-06-10T03:22:53;100636.88;;;26.16;37.05
28344;BME280;15597;50.914;6.638;2023-06-10T03:25:19;100632.59;;;26.13;36.79
28344;BME280;15597;50.914;6.638;2023-06-10T03:27:48;100632.88;;;26.10;36.82
28344;BME280;15597;50.914;6.638;2023-06-10T03:30:13;100632.16;;;26.08;36.95
28344;BME280;15597;50.914;6.638;2023-06-10T03:32:40;100639.47;;;26.06;37.04
28344;BME280;15597;50.914;6.638;2023-06-10T03:35:08;100642.16;;;26.06;37.26
28344;BME280;15597;50.914;6.638;2023-06-10T03:37:33;100644.25;;;26.02;37.05
28344;BME280;15597;50.914;6.638;2023-06-10T03:39:59;100651.47;;;26.02;37.29
28344;BME280;15597;50.914;6.638;2023-06-10T03:42:26;100641.00;;;25.99;37.00
28344;BME280;15597;50.914;6.638;2023-06-10T03:44:51;100643.78;;;25.97;37.31
28344;BME280;15597;50.914;6.638;2023-06-10T03:47:17;100649.41;;;25.94;37.04
28344;BME280;15597;50.914;6.638;2023-06-10T03:49:43;100651.38;;;25.92;37.16
28344;BME280;15597;50.914;6.638;2023-06-10T03:52:10;100649.69;;;25.91;37.51
28344;BME280;15597;50.914;6.638;2023-06-10T03:54:36;100653.34;;;25.90;37.43
28344;BME280;15597;50.914;6.638;2023-06-10T03:57:02;100642.63;;;25.90;37.07
28344;BME280;15597;50.914;6.638;2023-06-10T03:59:29;100646.28;;;25.89;37.24
28344;BME280;15597;50.914;6.638;2023-06-10T04:01:55;100651.91;;;25.86;37.50
28344;BME280;15597;50.914;6.638;2023-06-10T04:04:20;100643.41;;;25.80;37.57
28344;BME280;15597;50.914;6.638;2023-06-10T04:06:46;100643.53;;;25.79;37.49
28344;BME280;15597;50.914;6.638;2023-06-10T04:09:14;100641.97;;;25.76;37.44
28344;BME280;15597;50.914;6.638;2023-06-10T04:11:39;100648.44;;;25.74;37.87
28344;BME280;15597;50.914;6.638;2023-06-10T04:14:05;100648.59;;;25.72;37.74
28344;BME280;15597;50.914;6.638;2023-06-10T04:16:31;100657.72;;;25.70;37.45
28344;BME280;15597;50.914;6.638;2023-06-10T04:18:59;100660.41;;;25.70;37.83
28344;BME280;15597;50.914;6.638;2023-06-10T04:21:25;100658.84;;;25.67;37.92
28344;BME280;15597;50.914;6.638;2023-06-10T04:23:50;100667.84;;;25.66;37.98
28344;BME280;15597;50.914;6.638;2023-06-10T04:26:16;100671.53;;;25.65;37.89
28344;BME280;15597;50.914;6.638;2023-06-10T04:28:45;100668.13;;;25.63;37.67
28344;BME280;15597;50.914;6.638;2023-06-10T04:31:11;100669.81;;;25.64;37.58
28344;BME280;15597;50.914;6.638;2023-06-10T04:33:38;100677.97;;;25.62;37.81
28344;BME280;15597;50.914;6.638;2023-06-10T04:36:04;100676.16;;;25.63;37.75
28344;BME280;15597;50.914;6.638;2023-06-10T04:38:32;100679.66;;;25.63;37.70
28344;BME280;15597;50.914;6.638;2023-06-10T04:40:59;100680.53;;;25.64;38.15
28344;BME280;15597;50.914;6.638;2023-06-10T04:43:26;100674.31;;;25.63;37.71
28344;BME280;15597;50.914;6.638;2023-06-10T04:45:54;100662.81;;;25.40;37.93
28344;BME280;15597;50.914;6.638;2023-06-10T04:48:20;100664.06;;;25.47;38.41
28344;BME280;15597;50.914;6.638;2023-06-10T04:50:46;100665.75;;;25.48;38.05
28344;BME280;15597;50.914;6.638;2023-06-10T04:53:12;100665.59;;;25.50;38.56
28344;BME280;15597;50.914;6.638;2023-06-10T04:55:40;100668.28;;;25.50;37.98
28344;BME280;15597;50.914;6.638;2023-06-10T04:58:07;100658.44;;;25.50;38.46
28344;BME280;15597;50.914;6.638;2023-06-10T05:00:33;100664.53;;;25.52;38.38
28344;BME280;15597;50.914;6.638;2023-06-10T05:02:58;100656.47;;;25.52;38.10
28344;BME280;15597;50.914;6.638;2023-06-10T05:05:24;100662.66;;;25.53;38.57
28344;BME280;15597;50.914;6.638;2023-06-10T05:07:50;100661.56;;;25.56;38.29
28344;BME280;15597;50.914;6.638;2023-06-10T05:10:15;100658.03;;;25.55;38.65
28344;BME280;15597;50.914;6.638;2023-06-10T05:12:41;100673.13;;;25.56;38.63
28344;BME280;15597;50.914;6.638;2023-06-10T05:15:07;100670.34;;;25.58;38.62
28344;BME280;15597;50.914;6.638;2023-06-10T05:17:33;100662.31;;;25.58;38.35
28344;BME280;15597;50.914;6.638;2023-06-10T05:20:01;100664.72;;;25.61;38.20
28344;BME280;15597;50.914;6.638;2023-06-10T05:22:26;100662.75;;;25.63;38.65
28344;BME280;15597;50.914;6.638;2023-06-10T05:24:53;100667.00;;;25.65;38.40
28344;BME280;15597;50.914;6.638;2023-06-10T05:27:18;100669.56;;;25.67;38.12
28344;BME280;15597;50.914;6.638;2023-06-10T05:29:44;100672.97;;;25.69;38.16
28344;BME280;15597;50.914;6.638;2023-06-10T05:32:11;100663.06;;;25.70;38.20
28344;BME280;15597;50.914;6.638;2023-06-10T05:34:37;100669.31;;;25.70;38.23
28344;BME280;15597;50.914;6.638;2023-06-10T05:37:02;100667.34;;;25.72;38.69
28344;BME280;15597;50.914;6.638;2023-06-10T05:39:28;100661.13;;;25.72;38.33
28344;BME280;15597;50.914;6.638;2023-06-10T05:41:54;100676.34;;;25.71;38.14
28344;BME280;15597;50.914;6.638;2023-06-10T05:44:19;100674.66;;;25.70;38.77
28344;BME280;15597;50.914;6.638;2023-06-10T05:46:45;100665.63;;;25.71;38.54
28344;BME280;15597;50.914;6.638;2023-06-10T05:49:11;100676.09;;;25.74;38.80
28344;BME280;15597;50.914;6.638;2023-06-10T05:51:36;100673.28;;;25.76;38.29
28344;BME280;15597;50.914;6.638;2023-06-10T05:54:02;100679.25;;;25.79;38.93
28344;BME280;15597;50.914;6.638;2023-06-10T05:56:28;100680.22;;;25.78;38.95
28344;BME280;15597;50.914;6.638;2023-06-10T05:58:54;100688.25;;;25.78;38.57
28344;BME280;15597;50.914;6.638;2023-06-10T06:01:20;100685.56;;;25.78;38.82
28344;BME280;15597;50.914;6.638;2023-06-10T06:03:46;100686.28;;;25.80;38.83
28344;BME280;15597;50.914;6.638;2023-06-10T06:06:11;100677.28;;;25.81;38.70
28344;BME280;15597;50.914;6.638;2023-06-10T06:08:37;100678.97;;;25.83;39.06
28344;BME280;15597;50.914;6.638;2023-06-10T06:11:03;100683.22;;;25.85;39.03
28344;BME280;15597;50.914;6.638;2023-06-10T06:13:28;100684.06;;;25.86;39.95
28344;BME280;15597;50.914;6.638;2023-06-10T06:15:54;100688.19;;;25.90;39.02
28344;BME280;15597;50.914;6.638;2023-06-10T06:18:19;100688.19;;;25.90;39.80
28344;BME280;15597;50.914;6.638;2023-06-10T06:20:45;100686.50;;;25.89;39.30
28344;BME280;15597;50.914;6.638;2023-06-10T06:23:10;100684.66;;;25.89;39.56
28344;BME280;15597;50.914;6.638;2023-06-10T06:25:36;100690.88;;;25.90;39.31
28344;BME280;15597;50.914;6.638;2023-06-10T06:28:05;100687.19;;;25.70;39.65
28344;BME280;15597;50.914;6.638;2023-06-10T06:30:31;100687.00;;;25.83;39.82
28344;BME280;15597;50.914;6.638;2023-06-10T06:32:57;100691.84;;;25.89;39.68
28344;BME280;15597;50.914;6.638;2023-06-10T06:35:22;100682.69;;;25.91;39.46
28344;BME280;15597;50.914;6.638;2023-06-10T06:37:48;100695.72;;;25.96;39.68
28344;BME280;15597;50.914;6.638;2023-06-10T06:40:19;100696.44;;;25.98;39.55
28344;BME280;15597;50.914;6.638;2023-06-10T06:42:45;100697.28;;;25.99;39.46
28344;BME280;15597;50.914;6.638;2023-06-10T06:45:18;100695.19;;;26.02;39.44
28344;BME280;15597;50.914;6.638;2023-06-10T06:47:43;100698.59;;;26.04;39.29
28344;BME280;15597;50.914;6.638;2023-06-10T06:50:09;100692.97;;;26.07;39.46
28344;BME280;15597;50.914;6.638;2023-06-10T06:52:35;100696.09;;;26.13;39.09
28344;BME280;15597;50.914;6.638;2023-06-10T06:55:00;100698.66;;;26.14;39.30
28344;BME280;15597;50.914;6.638;2023-06-10T06:57:26;100705.75;;;26.15;38.83
28344;BME280;15597;50.914;6.638;2023-06-10T06:59:51;100703.16;;;26.14;39.03
28344;BME280;15597;50.914;6.638;2023-06-10T07:02:17;100700.25;;;26.17;39.14
28344;BME280;15597;50.914;6.638;2023-06-10T07:04:44;100699.00;;;26.21;38.83
28344;BME280;15597;50.914;6.638;2023-06-10T07:07:11;100710.16;;;26.26;39.01
28344;BME280;15597;50.914;6.638;2023-06-10T07:09:37;100714.28;;;26.30;38.55
28344;BME280;15597;50.914;6.638;2023-06-10T07:12:03;100709.53;;;26.34;38.75
28344;BME280;15597;50.914;6.638;2023-06-10T07:14:29;100713.63;;;26.38;38.60
28344;BME280;15597;50.914;6.638;2023-06-10T07:16:54;100706.16;;;26.42;38.52
28344;BME280;15597;50.914;6.638;2023-06-10T07:19:20;100706.59;;;26.47;38.51
28344;BME280;15597;50.914;6.638;2023-06-10T07:21:45;100713.53;;;26.49;38.11
28344;BME280;15597;50.914;6.638;2023-06-10T07:24:11;100707.06;;;26.52;38.37
28344;BME280;15597;50.914;6.638;2023-06-10T07:26:37;100707.63;;;26.56;38.18
28344;BME280;15597;50.914;6.638;2023-06-10T07:29:02;100704.56;;;26.60;38.33
28344;BME280;15597;50.914;6.638;2023-06-10T07:31:28;100702.31;;;26.65;37.84
28344;BME280;15597;50.914;6.638;2023-06-10T07:33:53;100705.44;;;26.71;38.14
28344;BME280;15597;50.914;6.638;2023-06-10T07:36:19;100711.25;;;26.76;37.77
28344;BME280;15597;50.914;6.638;2023-06-10T07:38:44;100707.44;;;26.78;37.88
28344;BME280;15597;50.914;6.638;2023-06-10T07:41:10;100700.97;;;26.81;37.96
28344;BME280;15597;50.914;6.638;2023-06-10T07:43:37;100699.72;;;26.85;37.75
28344;BME280;15597;50.914;6.638;2023-06-10T07:46:02;100698.47;;;26.89;37.92
28344;BME280;15597;50.914;6.638;2023-06-10T07:48:28;100693.81;;;26.91;37.74
28344;BME280;15597;50.914;6.638;2023-06-10T07:50:53;100690.56;;;26.97;37.48
28344;BME280;15597;50.914;6.638;2023-06-10T07:53:19;100701.03;;;27.01;37.57
28344;BME280;15597;50.914;6.638;2023-06-10T07:55:45;100687.22;;;27.05;37.42
28344;BME280;15597;50.914;6.638;2023-06-10T07:58:10;100696.53;;;27.11;37.30
28344;BME280;15597;50.914;6.638;2023-06-10T08:00:36;100695.00;;;27.18;37.23
28344;BME280;15597;50.914;6.638;2023-06-10T08:03:02;100693.72;;;27.22;36.87
28344;BME280;15597;50.914;6.638;2023-06-10T08:05:27;100695.13;;;27.26;36.81
28344;BME280;15597;50.914;6.638;2023-06-10T08:07:53;100699.97;;;27.33;36.56
28344;BME280;15597;50.914;6.638;2023-06-10T08:10:18;100696.72;;;27.39;36.79
28344;BME280;15597;50.914;6.638;2023-06-10T08:12:44;100701.38;;;27.37;36.92
28344;BME280;15597;50.914;6.638;2023-06-10T08:15:10;100699.38;;;27.39;37.01
28344;BME280;15597;50.914;6.638;2023-06-10T08:17:37;100698.81;;;27.45;36.36
28344;BME280;15597;50.914;6.638;2023-06-10T08:20:03;100701.69;;;27.53;36.61
28344;BME280;15597;50.914;6.638;2023-06-10T08:22:29;100700.16;;;27.61;36.55
28344;BME280;15597;50.914;6.638;2023-06-10T08:24:54;100696.31;;;27.63;36.62
28344;BME280;15597;50.914;6.638;2023-06-10T08:27:21;100702.41;;;27.65;36.41
28344;BME280;15597;50.914;6.638;2023-06-10T08:29:47;100701.00;;;27.71;36.50
28344;BME280;15597;50.914;6.638;2023-06-10T08:32:12;100695.19;;;27.76;36.49
28344;BME280;15597;50.914;6.638;2023-06-10T08:34:38;100690.81;;;27.84;36.28
28344;BME280;15597;50.914;6.638;2023-06-10T08:37:04;100691.63;;;27.95;36.23
28344;BME280;15597;50.914;6.638;2023-06-10T08:39:30;100688.06;;;28.04;36.06
28344;BME280;15597;50.914;6.638;2023-06-10T08:44:35;100689.34;;;28.20;35.68
28344;BME280;15597;50.914;6.638;2023-06-10T08:47:08;100690.72;;;28.24;35.91
28344;BME280;15597;50.914;6.638;2023-06-10T08:49:38;100692.84;;;28.30;35.65
28344;BME280;15597;50.914;6.638;2023-06-10T08:52:07;100701.72;;;28.40;35.59
28344;BME280;15597;50.914;6.638;2023-06-10T08:54:34;100692.94;;;28.48;35.89
28344;BME280;15597;50.914;6.638;2023-06-10T08:57:06;100695.03;;;28.54;35.72
28344;BME280;15597;50.914;6.638;2023-06-10T08:59:36;100688.03;;;28.62;35.32
28344;BME280;15597;50.914;6.638;2023-06-10T09:02:04;100692.69;;;28.69;35.22
28344;BME280;15597;50.914;6.638;2023-06-10T09:04:30;100693.53;;;28.80;35.23
28344;BME280;15597;50.914;6.638;2023-06-10T09:06:56;100690.94;;;28.88;34.90
28344;BME280;15597;50.914;6.638;2023-06-10T09:09:22;100693.72;;;28.96;34.96
28344;BME280;15597;50.914;6.638;2023-06-10T09:11:48;100698.31;;;29.04;34.48
28344;BME280;15597;50.914;6.638;2023-06-10T09:14:14;100693.88;;;29.13;35.00
28344;BME280;15597;50.914;6.638;2023-06-10T09:16:41;100698.34;;;29.22;34.25
28344;BME280;15597;50.914;6.638;2023-06-10T09:19:07;100692.34;;;29.28;34.62
28344;BME280;15597;50.914;6.638;2023-06-10T09:21:34;100688.03;;;29.36;34.37
28344;BME280;15597;50.914;6.638;2023-06-10T09:24:01;100688.63;;;29.39;34.58
28344;BME280;15597;50.914;6.638;2023-06-10T09:26:30;100690.84;;;29.44;34.57
28344;BME280;15597;50.914;6.638;2023-06-10T09:29:07;100691.53;;;29.46;34.47
28344;BME280;15597;50.914;6.638;2023-06-10T09:31:40;100691.28;;;29.57;34.12
28344;BME280;15597;50.914;6.638;2023-06-10T09:34:07;100691.03;;;29.69;34.27
28344;BME280;15597;50.914;6.638;2023-06-10T09:36:34;100690.13;;;29.78;34.45
28344;BME280;15597;50.914;6.638;2023-06-10T09:39:00;100686.81;;;29.84;34.18
28344;BME280;15597;50.914;6.638;2023-06-10T09:41:35;100690.19;;;29.86;34.35
28344;BME280;15597;50.914;6.638;2023-06-10T09:44:15;100677.91;;;29.92;34.23
28344;BME280;15597;50.914;6.638;2023-06-10T09:46:41;100683.25;;;30.02;33.39
28344;BME280;15597;50.914;6.638;2023-06-10T09:49:06;100687.16;;;30.08;33.86
28344;BME280;15597;50.914;6.638;2023-06-10T09:51:32;100678.28;;;30.15;33.35
28344;BME280;15597;50.914;6.638;2023-06-10T09:53:59;100690.44;;;30.20;33.19
28344;BME280;15597;50.914;6.638;2023-06-10T09:56:38;100678.78;;;30.19;33.47
28344;BME280;15597;50.914;6.638;2023-06-10T09:59:08;100677.53;;;30.31;32.83
28344;BME280;15597;50.914;6.638;2023-06-10T10:01:33;100681.09;;;30.40;32.68
28344;BME280;15597;50.914;6.638;2023-06-10T10:03:59;100685.69;;;30.48;33.17
28344;BME280;15597;50.914;6.638;2023-06-10T10:06:26;100679.13;;;30.51;32.97
28344;BME280;15597;50.914;6.638;2023-06-10T10:08:52;100684.19;;;30.54;32.85
28344;BME280;15597;50.914;6.638;2023-06-10T10:11:20;100676.63;;;30.57;32.82
28344;BME280;15597;50.914;6.638;2023-06-10T10:13:50;100679.38;;;30.66;32.86
28344;BME280;15597;50.914;6.638;2023-06-10T10:16:19;100675.84;;;30.73;32.51
28344;BME280;15597;50.914;6.638;2023-06-10T10:18:54;100675.84;;;30.73;32.78
28344;BME280;15597;50.914;6.638;2023-06-10T10:21:24;100674.72;;;30.84;32.99
28344;BME280;15597;50.914;6.638;2023-06-10T10:26:40;100669.00;;;30.96;32.27
28344;BME280;15597;50.914;6.638;2023-06-10T10:31:43;100662.47;;;31.15;31.89
28344;BME280;15597;50.914;6.638;2023-06-10T10:34:14;100666.38;;;31.21;31.67
28344;BME280;15597;50.914;6.638;2023-06-10T10:36:41;100662.84;;;31.28;31.91
28344;BME280;15597;50.914;6.638;2023-06-10T10:39:07;100663.88;;;31.36;31.58
28344;BME280;15597;50.914;6.638;2023-06-10T10:41:34;100664.38;;;31.39;31.21
28344;BME280;15597;50.914;6.638;2023-06-10T10:44:01;100667.25;;;31.38;31.39
28344;BME280;15597;50.914;6.638;2023-06-10T10:46:27;100662.16;;;31.35;31.16
28344;BME280;15597;50.914;6.638;2023-06-10T10:48:54;100658.78;;;31.32;31.37
28344;BME280;15597;50.914;6.638;2023-06-10T10:51:20;100652.38;;;31.33;31.34
28344;BME280;15597;50.914;6.638;2023-06-10T10:54:14;100653.72;;;31.29;31.38
28344;BME280;15597;50.914;6.638;2023-06-10T10:57:09;100648.84;;;31.41;31.64
28344;BME280;15597;50.914;6.638;2023-06-10T10:59:57;100648.50;;;31.53;31.11
28344;BME280;15597;50.914;6.638;2023-06-10T11:02:40;100646.28;;;31.65;30.35
28344;BME280;15597;50.914;6.638;2023-06-10T11:05:09;100640.38;;;31.77;30.59
28344;BME280;15597;50.914;6.638;2023-06-10T11:07:35;100631.91;;;31.89;30.04
28344;BME280;15597;50.914;6.638;2023-06-10T11:10:02;100639.81;;;32.07;29.96
28344;BME280;15597;50.914;6.638;2023-06-10T11:13:14;100626.25;;;32.15;30.32
28344;BME280;15597;50.914;6.638;2023-06-10T11:15:44;100635.38;;;32.31;30.53
28344;BME280;15597;50.914;6.638;2023-06-10T11:28:41;100616.16;;;32.81;29.27
28344;BME280;15597;50.914;6.638;2023-06-10T11:31:12;100621.16;;;33.00;29.41
28344;BME280;15597;50.914;6.638;2023-06-10T11:33:43;100615.78;;;33.15;28.79
28344;BME280;15597;50.914;6.638;2023-06-10T11:36:09;100606.38;;;33.26;29.28
28344;BME280;15597;50.914;6.638;2023-06-10T11:38:35;100605.81;;;33.31;29.43
28344;BME280;15597;50.914;6.638;2023-06-10T11:41:02;100603.00;;;33.47;28.29
28344;BME280;15597;50.914;6.638;2023-06-10T11:43:28;100599.56;;;33.69;27.78
28344;BME280;15597;50.914;6.638;2023-06-10T11:45:55;100597.69;;;33.84;27.68
28344;BME280;15597;50.914;6.638;2023-06-10T11:48:21;100599.63;;;33.99;27.02
28344;BME280;15597;50.914;6.638;2023-06-10T11:50:47;100596.88;;;34.14;27.59
28344;BME280;15597;50.914;6.638;2023-06-10T11:53:12;100605.78;;;34.22;27.13
28344;BME280;15597;50.914;6.638;2023-06-10T11:58:16;100592.63;;;34.41;27.41
28344;BME280;15597;50.914;6.638;2023-06-10T12:00:52;100592.75;;;34.48;27.45
28344;BME280;15597;50.914;6.638;2023-06-10T12:03:20;100591.28;;;34.67;26.63
28344;BME280;15597;50.914;6.638;2023-06-10T12:05:59;100595.16;;;34.79;25.91
28344;BME280;15597;50.914;6.638;2023-06-10T12:08:26;100588.19;;;34.92;26.27
28344;BME280;15597;50.914;6.638;2023-06-10T12:10:53;100591.38;;;34.95;26.98
28344;BME280;15597;50.914;6.638;2023-06-10T12:13:19;100595.78;;;34.96;27.07
28344;BME280;15597;50.914;6.638;2023-06-10T12:15:45;100585.00;;;35.03;27.25
28344;BME280;15597;50.914;6.638;2023-06-10T12:18:20;100582.78;;;35.14;27.36
28344;BME280;15597;50.914;6.638;2023-06-10T12:20:46;100580.50;;;35.17;26.89
28344;BME280;15597;50.914;6.638;2023-06-10T12:23:14;100583.53;;;35.29;27.02
28344;BME280;15597;50.914;6.638;2023-06-10T12:25:49;100582.28;;;35.32;27.05
28344;BME280;15597;50.914;6.638;2023-06-10T12:28:15;100580.81;;;35.51;26.75
28344;BME280;15597;50.914;6.638;2023-06-10T12:30:43;100575.59;;;35.56;27.21
28344;BME280;15597;50.914;6.638;2023-06-10T12:33:26;100574.03;;;35.47;27.31
28344;BME280;15597;50.914;6.638;2023-06-10T12:35:52;100568.09;;;35.58;27.22
28344;BME280;15597;50.914;6.638;2023-06-10T12:38:22;100565.34;;;35.58;27.29
28344;BME280;15597;50.914;6.638;2023-06-10T12:40:50;100567.03;;;35.59;27.33
28344;BME280;15597;50.914;6.638;2023-06-10T12:43:19;100564.97;;;35.61;27.23
28344;BME280;15597;50.914;6.638;2023-06-10T12:45:45;100571.28;;;35.68;26.76
28344;BME280;15597;50.914;6.638;2023-06-10T12:48:17;100565.50;;;35.85;26.88
28344;BME280;15597;50.914;6.638;2023-06-10T12:50:43;100560.94;;;35.92;26.78
28344;BME280;15597;50.914;6.638;2023-06-10T12:53:11;100567.03;;;35.94;26.42
28344;BME280;15597;50.914;6.638;2023-06-10T12:55:37;100567.50;;;35.63;27.48
28344;BME280;15597;50.914;6.638;2023-06-10T12:58:03;100559.66;;;35.81;26.99
28344;BME280;15597;50.914;6.638;2023-06-10T13:00:29;100571.81;;;35.92;27.16
28344;BME280;15597;50.914;6.638;2023-06-10T13:02:59;100563.13;;;36.04;27.03
28344;BME280;15597;50.914;6.638;2023-06-10T13:05:26;100565.28;;;36.15;26.75
28344;BME280;15597;50.914;6.638;2023-06-10T13:07:52;100559.47;;;36.32;26.71
28344;BME280;15597;50.914;6.638;2023-06-10T13:10:18;100556.19;;;36.50;26.63
28344;BME280;15597;50.914;6.638;2023-06-10T13:12:44;100556.22;;;36.57;26.00